Terminal Aerodrome Forecast
Issued by NWS

Home | Current Version | Previous Version | Text Only | Print | Product List | Glossary On
Versions: 1 2 3 4 5 6 7 8 9 10 11 12 13
000
FTUS43 KGRB 180529
TAFATW
TAF
KATW 180529Z 1806/1906 23007KT P6SM FEW200 WS020/27040KT
     FM181100 27007KT 6SM BR FEW150 WS020/30035KT
     FM181300 27007KT 5SM BR SCT150
     FM181500 27007KT P6SM SCT200
     FM190300 28005KT 6SM BR SCT100=

USA.gov is the U.S. government's official web portal to all federal, state and local government web resources and services.